sensor_id;sensor_type;location;lat;lon;timestamp;P1;durP1;ratioP1;P2;durP2;ratioP2
47966;SDS011;33733;52.456;13.620;2022-09-12T00:01:22;9.20;;;4.22;;
47966;SDS011;33733;52.456;13.620;2022-09-12T00:03:54;10.27;;;5.47;;
47966;SDS011;33733;52.456;13.620;2022-09-12T00:06:24;9.45;;;4.85;;
47966;SDS011;33733;52.456;13.620;2022-09-12T00:11:19;9.73;;;4.85;;
47966;SDS011;33733;52.456;13.620;2022-09-12T00:13:45;8.75;;;5.20;;
47966;SDS011;33733;52.456;13.620;2022-09-12T00:16:13;8.05;;;5.05;;
47966;SDS011;33733;52.456;13.620;2022-09-12T00:18:45;8.70;;;4.65;;
47966;SDS011;33733;52.456;13.620;2022-09-12T00:21:12;9.40;;;4.05;;
47966;SDS011;33733;52.456;13.620;2022-09-12T00:23:39;8.85;;;3.55;;
47966;SDS011;33733;52.456;13.620;2022-09-12T00:26:06;7.53;;;3.72;;
47966;SDS011;33733;52.456;13.620;2022-09-12T00:28:33;8.90;;;3.72;;
47966;SDS011;33733;52.456;13.620;2022-09-12T00:31:05;8.27;;;3.97;;
47966;SDS011;33733;52.456;13.620;2022-09-12T00:33:34;11.35;;;5.60;;
47966;SDS011;33733;52.456;13.620;2022-09-12T00:36:04;9.77;;;4.07;;
47966;SDS011;33733;52.456;13.620;2022-09-12T00:38:32;10.40;;;5.45;;
47966;SDS011;33733;52.456;13.620;2022-09-12T00:41:01;10.48;;;5.97;;
47966;SDS011;33733;52.456;13.620;2022-09-12T00:43:37;9.13;;;5.18;;
47966;SDS011;33733;52.456;13.620;2022-09-12T00:46:12;8.70;;;5.18;;
47966;SDS011;33733;52.456;13.620;2022-09-12T00:48:51;6.40;;;3.03;;
47966;SDS011;33733;52.456;13.620;2022-09-12T00:51:23;7.57;;;4.35;;
47966;SDS011;33733;52.456;13.620;2022-09-12T00:53:51;9.32;;;5.30;;
47966;SDS011;33733;52.456;13.620;2022-09-12T00:56:19;7.32;;;3.35;;
47966;SDS011;33733;52.456;13.620;2022-09-12T00:58:49;10.63;;;4.07;;
47966;SDS011;33733;52.456;13.620;2022-09-12T01:01:19;11.07;;;3.63;;
47966;SDS011;33733;52.456;13.620;2022-09-12T01:03:46;11.50;;;5.07;;
47966;SDS011;33733;52.456;13.620;2022-09-12T01:06:22;8.95;;;3.70;;
47966;SDS011;33733;52.456;13.620;2022-09-12T01:08:51;8.65;;;5.03;;
47966;SDS011;33733;52.456;13.620;2022-09-12T01:11:20;9.35;;;4.78;;
47966;SDS011;33733;52.456;13.620;2022-09-12T01:13:47;9.73;;;5.22;;
47966;SDS011;33733;52.456;13.620;2022-09-12T01:16:14;7.18;;;3.53;;
47966;SDS011;33733;52.456;13.620;2022-09-12T01:18:50;7.22;;;3.50;;
47966;SDS011;33733;52.456;13.620;2022-09-12T01:35:23;7.07;;;4.13;;
47966;SDS011;33733;52.456;13.620;2022-09-12T01:37:59;8.43;;;4.47;;
47966;SDS011;33733;52.456;13.620;2022-09-12T01:43:21;10.05;;;3.97;;
47966;SDS011;33733;52.456;13.620;2022-09-12T01:48:22;10.32;;;4.25;;
47966;SDS011;33733;52.456;13.620;2022-09-12T01:50:57;9.60;;;3.30;;
47966;SDS011;33733;52.456;13.620;2022-09-12T01:53:26;7.57;;;2.88;;
47966;SDS011;33733;52.456;13.620;2022-09-12T01:56:00;7.18;;;4.18;;
47966;SDS011;33733;52.456;13.620;2022-09-12T02:06:26;6.10;;;3.33;;
47966;SDS011;33733;52.456;13.620;2022-09-12T02:09:01;7.60;;;3.90;;
47966;SDS011;33733;52.456;13.620;2022-09-12T02:11:30;7.95;;;3.47;;
47966;SDS011;33733;52.456;13.620;2022-09-12T02:14:00;5.80;;;2.55;;
47966;SDS011;33733;52.456;13.620;2022-09-12T02:16:34;6.97;;;4.22;;
47966;SDS011;33733;52.456;13.620;2022-09-12T02:19:04;7.22;;;3.88;;
47966;SDS011;33733;52.456;13.620;2022-09-12T02:21:35;5.72;;;2.90;;
47966;SDS011;33733;52.456;13.620;2022-09-12T02:24:02;7.10;;;3.35;;
47966;SDS011;33733;52.456;13.620;2022-09-12T02:26:31;6.75;;;4.03;;
47966;SDS011;33733;52.456;13.620;2022-09-12T02:29:03;6.40;;;2.67;;
47966;SDS011;33733;52.456;13.620;2022-09-12T02:31:39;7.10;;;2.60;;
47966;SDS011;33733;52.456;13.620;2022-09-12T02:39:26;7.55;;;4.72;;
47966;SDS011;33733;52.456;13.620;2022-09-12T02:41:53;7.13;;;3.92;;
47966;SDS011;33733;52.456;13.620;2022-09-12T02:44:21;5.78;;;2.47;;
47966;SDS011;33733;52.456;13.620;2022-09-12T02:46:49;7.18;;;4.47;;
47966;SDS011;33733;52.456;13.620;2022-09-12T02:49:19;6.65;;;3.67;;
47966;SDS011;33733;52.456;13.620;2022-09-12T02:51:45;5.88;;;2.70;;
47966;SDS011;33733;52.456;13.620;2022-09-12T02:54:13;6.38;;;3.85;;
47966;SDS011;33733;52.456;13.620;2022-09-12T02:56:41;6.53;;;3.63;;
47966;SDS011;33733;52.456;13.620;2022-09-12T02:59:10;9.15;;;2.75;;
47966;SDS011;33733;52.456;13.620;2022-09-12T03:09:18;7.22;;;3.58;;
47966;SDS011;33733;52.456;13.620;2022-09-12T03:19:32;8.73;;;2.92;;
47966;SDS011;33733;52.456;13.620;2022-09-12T03:27:41;6.65;;;2.88;;
47966;SDS011;33733;52.456;13.620;2022-09-12T03:30:19;9.02;;;2.83;;
47966;SDS011;33733;52.456;13.620;2022-09-12T03:32:47;5.50;;;2.67;;
47966;SDS011;33733;52.456;13.620;2022-09-12T03:35:16;6.53;;;4.30;;
47966;SDS011;33733;52.456;13.620;2022-09-12T03:37:48;6.13;;;2.75;;
47966;SDS011;33733;52.456;13.620;2022-09-12T03:40:15;6.50;;;2.75;;
47966;SDS011;33733;52.456;13.620;2022-09-12T03:42:42;6.22;;;2.88;;
47966;SDS011;33733;52.456;13.620;2022-09-12T03:45:08;7.88;;;3.53;;
47966;SDS011;33733;52.456;13.620;2022-09-12T03:47:35;7.55;;;4.18;;
47966;SDS011;33733;52.456;13.620;2022-09-12T03:50:02;9.57;;;4.63;;
47966;SDS011;33733;52.456;13.620;2022-09-12T03:52:29;8.45;;;3.85;;
47966;SDS011;33733;52.456;13.620;2022-09-12T03:54:56;8.45;;;4.43;;
47966;SDS011;33733;52.456;13.620;2022-09-12T03:57:22;7.97;;;2.60;;
47966;SDS011;33733;52.456;13.620;2022-09-12T03:59:48;7.07;;;3.15;;
47966;SDS011;33733;52.456;13.620;2022-09-12T04:02:16;6.35;;;3.95;;
47966;SDS011;33733;52.456;13.620;2022-09-12T04:04:43;7.18;;;4.78;;
47966;SDS011;33733;52.456;13.620;2022-09-12T04:07:13;6.60;;;4.00;;
47966;SDS011;33733;52.456;13.620;2022-09-12T04:09:41;7.28;;;4.18;;
47966;SDS011;33733;52.456;13.620;2022-09-12T04:12:07;6.88;;;3.80;;
47966;SDS011;33733;52.456;13.620;2022-09-12T04:14:34;9.23;;;4.72;;
47966;SDS011;33733;52.456;13.620;2022-09-12T04:17:00;7.60;;;4.70;;
47966;SDS011;33733;52.456;13.620;2022-09-12T04:19:27;6.25;;;2.83;;
47966;SDS011;33733;52.456;13.620;2022-09-12T04:21:53;7.57;;;3.05;;
47966;SDS011;33733;52.456;13.620;2022-09-12T04:24:20;8.00;;;5.22;;
47966;SDS011;33733;52.456;13.620;2022-09-12T04:26:46;6.55;;;3.10;;
47966;SDS011;33733;52.456;13.620;2022-09-12T04:29:13;7.20;;;4.18;;
47966;SDS011;33733;52.456;13.620;2022-09-12T04:31:40;6.55;;;2.88;;
47966;SDS011;33733;52.456;13.620;2022-09-12T04:34:07;6.60;;;2.83;;
47966;SDS011;33733;52.456;13.620;2022-09-12T04:36:33;7.05;;;4.15;;
47966;SDS011;33733;52.456;13.620;2022-09-12T04:39:01;9.70;;;5.15;;
47966;SDS011;33733;52.456;13.620;2022-09-12T04:41:29;7.85;;;3.08;;
47966;SDS011;33733;52.456;13.620;2022-09-12T04:43:58;6.40;;;2.63;;
47966;SDS011;33733;52.456;13.620;2022-09-12T04:46:31;6.05;;;3.97;;
47966;SDS011;33733;52.456;13.620;2022-09-12T04:48:59;6.32;;;2.60;;
47966;SDS011;33733;52.456;13.620;2022-09-12T04:51:27;10.77;;;3.92;;
47966;SDS011;33733;52.456;13.620;2022-09-12T04:53:56;6.20;;;2.75;;
47966;SDS011;33733;52.456;13.620;2022-09-12T04:56:26;7.38;;;2.25;;
47966;SDS011;33733;52.456;13.620;2022-09-12T04:58:55;10.55;;;4.47;;
47966;SDS011;33733;52.456;13.620;2022-09-12T05:01:23;6.55;;;2.80;;
47966;SDS011;33733;52.456;13.620;2022-09-12T05:03:50;6.50;;;2.58;;
47966;SDS011;33733;52.456;13.620;2022-09-12T05:06:21;8.13;;;3.72;;
47966;SDS011;33733;52.456;13.620;2022-09-12T05:08:49;9.18;;;3.85;;
47966;SDS011;33733;52.456;13.620;2022-09-12T05:11:20;7.30;;;4.00;;
47966;SDS011;33733;52.456;13.620;2022-09-12T05:13:53;6.85;;;3.78;;
47966;SDS011;33733;52.456;13.620;2022-09-12T05:16:20;5.40;;;2.38;;
47966;SDS011;33733;52.456;13.620;2022-09-12T05:18:47;5.85;;;2.13;;
47966;SDS011;33733;52.456;13.620;2022-09-12T05:21:16;8.60;;;4.32;;
47966;SDS011;33733;52.456;13.620;2022-09-12T05:23:44;8.13;;;3.03;;
47966;SDS011;33733;52.456;13.620;2022-09-12T05:26:13;7.43;;;4.88;;
47966;SDS011;33733;52.456;13.620;2022-09-12T05:28:41;8.88;;;4.97;;
47966;SDS011;33733;52.456;13.620;2022-09-12T05:33:43;11.23;;;5.15;;
47966;SDS011;33733;52.456;13.620;2022-09-12T05:36:12;11.35;;;5.35;;
47966;SDS011;33733;52.456;13.620;2022-09-12T05:38:40;10.52;;;5.45;;
47966;SDS011;33733;52.456;13.620;2022-09-12T05:41:08;14.50;;;6.70;;
47966;SDS011;33733;52.456;13.620;2022-09-12T05:43:45;13.05;;;7.80;;
47966;SDS011;33733;52.456;13.620;2022-09-12T05:46:12;11.57;;;5.63;;
47966;SDS011;33733;52.456;13.620;2022-09-12T05:48:41;11.40;;;5.78;;
47966;SDS011;33733;52.456;13.620;2022-09-12T05:51:09;8.32;;;3.83;;
47966;SDS011;33733;52.456;13.620;2022-09-12T05:53:51;9.60;;;3.83;;
47966;SDS011;33733;52.456;13.620;2022-09-12T05:56:20;10.38;;;6.72;;
47966;SDS011;33733;52.456;13.620;2022-09-12T05:58:53;8.73;;;5.40;;
47966;SDS011;33733;52.456;13.620;2022-09-12T06:01:21;11.52;;;5.88;;
47966;SDS011;33733;52.456;13.620;2022-09-12T06:03:49;13.32;;;5.63;;
47966;SDS011;33733;52.456;13.620;2022-09-12T06:06:18;7.90;;;3.50;;
47966;SDS011;33733;52.456;13.620;2022-09-12T06:08:47;9.23;;;4.72;;
47966;SDS011;33733;52.456;13.620;2022-09-12T06:11:15;9.73;;;3.63;;
47966;SDS011;33733;52.456;13.620;2022-09-12T06:13:44;10.38;;;5.05;;
47966;SDS011;33733;52.456;13.620;2022-09-12T06:16:14;8.13;;;4.68;;
47966;SDS011;33733;52.456;13.620;2022-09-12T06:18:50;9.20;;;3.70;;
47966;SDS011;33733;52.456;13.620;2022-09-12T06:23:43;7.38;;;4.43;;
47966;SDS011;33733;52.456;13.620;2022-09-12T06:26:14;7.22;;;3.17;;
47966;SDS011;33733;52.456;13.620;2022-09-12T06:28:42;9.40;;;4.40;;
47966;SDS011;33733;52.456;13.620;2022-09-12T06:31:12;10.00;;;5.03;;
47966;SDS011;33733;52.456;13.620;2022-09-12T06:33:41;11.05;;;3.92;;
47966;SDS011;33733;52.456;13.620;2022-09-12T06:36:13;9.65;;;4.20;;
47966;SDS011;33733;52.456;13.620;2022-09-12T06:38:44;12.35;;;3.50;;
47966;SDS011;33733;52.456;13.620;2022-09-12T06:41:16;6.82;;;4.07;;
47966;SDS011;33733;52.456;13.620;2022-09-12T06:43:42;9.88;;;3.75;;
47966;SDS011;33733;52.456;13.620;2022-09-12T06:46:09;8.55;;;3.75;;
47966;SDS011;33733;52.456;13.620;2022-09-12T06:48:37;10.27;;;5.22;;
47966;SDS011;33733;52.456;13.620;2022-09-12T06:51:11;9.32;;;3.97;;
47966;SDS011;33733;52.456;13.620;2022-09-12T06:53:40;8.60;;;3.25;;
47966;SDS011;33733;52.456;13.620;2022-09-12T06:56:11;10.68;;;4.97;;
47966;SDS011;33733;52.456;13.620;2022-09-12T06:58:39;8.32;;;3.38;;
47966;SDS011;33733;52.456;13.620;2022-09-12T07:01:25;8.02;;;3.38;;
47966;SDS011;33733;52.456;13.620;2022-09-12T07:03:57;9.30;;;3.13;;
47966;SDS011;33733;52.456;13.620;2022-09-12T07:06:26;10.35;;;3.67;;
47966;SDS011;33733;52.456;13.620;2022-09-12T07:08:59;9.10;;;4.25;;
47966;SDS011;33733;52.456;13.620;2022-09-12T07:11:28;8.90;;;4.82;;
47966;SDS011;33733;52.456;13.620;2022-09-12T07:14:00;9.30;;;4.63;;
47966;SDS011;33733;52.456;13.620;2022-09-12T07:16:27;9.57;;;3.92;;
47966;SDS011;33733;52.456;13.620;2022-09-12T07:19:04;8.40;;;4.53;;
47966;SDS011;33733;52.456;13.620;2022-09-12T07:21:31;7.53;;;4.18;;
47966;SDS011;33733;52.456;13.620;2022-09-12T07:23:58;11.80;;;5.25;;
47966;SDS011;33733;52.456;13.620;2022-09-12T07:26:25;9.95;;;3.60;;
47966;SDS011;33733;52.456;13.620;2022-09-12T07:28:53;9.25;;;5.97;;
47966;SDS011;33733;52.456;13.620;2022-09-12T07:31:40;10.18;;;5.00;;
47966;SDS011;33733;52.456;13.620;2022-09-12T07:34:07;10.43;;;4.93;;
47966;SDS011;33733;52.456;13.620;2022-09-12T07:36:34;9.60;;;3.53;;
47966;SDS011;33733;52.456;13.620;2022-09-12T07:39:01;11.00;;;3.33;;
47966;SDS011;33733;52.456;13.620;2022-09-12T07:41:29;11.60;;;2.67;;
47966;SDS011;33733;52.456;13.620;2022-09-12T07:43:58;7.85;;;3.15;;
47966;SDS011;33733;52.456;13.620;2022-09-12T07:46:26;10.40;;;5.43;;
47966;SDS011;33733;52.456;13.620;2022-09-12T07:51:22;8.48;;;4.55;;
47966;SDS011;33733;52.456;13.620;2022-09-12T07:53:49;7.55;;;2.88;;
47966;SDS011;33733;52.456;13.620;2022-09-12T07:56:17;6.82;;;3.83;;
47966;SDS011;33733;52.456;13.620;2022-09-12T07:58:45;9.13;;;3.78;;
47966;SDS011;33733;52.456;13.620;2022-09-12T08:03:39;9.10;;;4.15;;
47966;SDS011;33733;52.456;13.620;2022-09-12T08:06:08;10.23;;;4.57;;
47966;SDS011;33733;52.456;13.620;2022-09-12T08:08:36;7.85;;;4.13;;
47966;SDS011;33733;52.456;13.620;2022-09-12T08:11:04;6.07;;;1.88;;
47966;SDS011;33733;52.456;13.620;2022-09-12T08:16:02;7.32;;;1.98;;
47966;SDS011;33733;52.456;13.620;2022-09-12T08:18:31;9.85;;;3.50;;
47966;SDS011;33733;52.456;13.620;2022-09-12T08:20:58;9.07;;;1.92;;
47966;SDS011;33733;52.456;13.620;2022-09-12T08:23:26;7.40;;;2.70;;
47966;SDS011;33733;52.456;13.620;2022-09-12T08:25:56;5.88;;;1.48;;
47966;SDS011;33733;52.456;13.620;2022-09-12T08:28:24;4.32;;;1.52;;
47966;SDS011;33733;52.456;13.620;2022-09-12T08:30:51;5.00;;;1.23;;
47966;SDS011;33733;52.456;13.620;2022-09-12T08:33:18;10.90;;;2.67;;
47966;SDS011;33733;52.456;13.620;2022-09-12T08:35:46;5.00;;;1.60;;
47966;SDS011;33733;52.456;13.620;2022-09-12T08:38:12;5.97;;;1.20;;
47966;SDS011;33733;52.456;13.620;2022-09-12T08:40:44;4.70;;;1.33;;
47966;SDS011;33733;52.456;13.620;2022-09-12T08:43:18;4.47;;;1.25;;
47966;SDS011;33733;52.456;13.620;2022-09-12T08:45:58;6.22;;;2.50;;
47966;SDS011;33733;52.456;13.620;2022-09-12T08:48:34;8.00;;;1.23;;
47966;SDS011;33733;52.456;13.620;2022-09-12T08:51:00;6.47;;;1.95;;
47966;SDS011;33733;52.456;13.620;2022-09-12T08:53:29;4.53;;;1.00;;
47966;SDS011;33733;52.456;13.620;2022-09-12T08:55:57;5.72;;;1.00;;
47966;SDS011;33733;52.456;13.620;2022-09-12T08:58:26;8.63;;;3.38;;
47966;SDS011;33733;52.456;13.620;2022-09-12T09:03:55;6.78;;;1.63;;
47966;SDS011;33733;52.456;13.620;2022-09-12T09:12:14;5.18;;;1.15;;
47966;SDS011;33733;52.456;13.620;2022-09-12T09:14:52;4.57;;;1.15;;
47966;SDS011;33733;52.456;13.620;2022-09-12T09:17:23;4.55;;;1.10;;
47966;SDS011;33733;52.456;13.620;2022-09-12T09:20:01;5.47;;;2.55;;
47966;SDS011;33733;52.456;13.620;2022-09-12T09:22:33;5.00;;;2.38;;
47966;SDS011;33733;52.456;13.620;2022-09-12T09:25:05;4.55;;;0.85;;
47966;SDS011;33733;52.456;13.620;2022-09-12T09:27:40;5.40;;;1.83;;
47966;SDS011;33733;52.456;13.620;2022-09-12T09:30:14;7.85;;;1.30;;
47966;SDS011;33733;52.456;13.620;2022-09-12T09:32:42;5.25;;;2.22;;
47966;SDS011;33733;52.456;13.620;2022-09-12T09:35:21;5.78;;;1.77;;
47966;SDS011;33733;52.456;13.620;2022-09-12T09:38:10;3.90;;;1.10;;
47966;SDS011;33733;52.456;13.620;2022-09-12T09:40:56;4.97;;;1.88;;
47966;SDS011;33733;52.456;13.620;2022-09-12T09:43:46;5.15;;;0.70;;
47966;SDS011;33733;52.456;13.620;2022-09-12T09:46:13;5.70;;;1.52;;
47966;SDS011;33733;52.456;13.620;2022-09-12T09:48:40;5.15;;;2.85;;
47966;SDS011;33733;52.456;13.620;2022-09-12T09:51:10;4.50;;;2.30;;
47966;SDS011;33733;52.456;13.620;2022-09-12T09:56:43;3.63;;;1.05;;
47966;SDS011;33733;52.456;13.620;2022-09-12T09:59:24;5.63;;;2.28;;
47966;SDS011;33733;52.456;13.620;2022-09-12T10:01:55;3.50;;;0.93;;
47966;SDS011;33733;52.456;13.620;2022-09-12T10:04:26;3.97;;;0.82;;
47966;SDS011;33733;52.456;13.620;2022-09-12T10:06:58;3.28;;;0.60;;
47966;SDS011;33733;52.456;13.620;2022-09-12T10:09:27;2.25;;;0.65;;
47966;SDS011;33733;52.456;13.620;2022-09-12T10:12:18;5.75;;;1.85;;
47966;SDS011;33733;52.456;13.620;2022-09-12T10:14:57;3.80;;;1.58;;
47966;SDS011;33733;52.456;13.620;2022-09-12T10:17:28;4.43;;;0.93;;
47966;SDS011;33733;52.456;13.620;2022-09-12T10:20:42;2.65;;;0.60;;
47966;SDS011;33733;52.456;13.620;2022-09-12T10:23:02;3.08;;;1.48;;
47966;SDS011;33733;52.456;13.620;2022-09-12T10:25:44;4.18;;;1.50;;
47966;SDS011;33733;52.456;13.620;2022-09-12T10:28:20;3.88;;;1.40;;
47966;SDS011;33733;52.456;13.620;2022-09-12T10:30:52;3.58;;;1.83;;
47966;SDS011;33733;52.456;13.620;2022-09-12T10:33:20;6.20;;;2.00;;
47966;SDS011;33733;52.456;13.620;2022-09-12T10:35:49;5.13;;;1.67;;
47966;SDS011;33733;52.456;13.620;2022-09-12T10:40:58;3.25;;;0.73;;
47966;SDS011;33733;52.456;13.620;2022-09-12T10:43:33;4.25;;;1.88;;
47966;SDS011;33733;52.456;13.620;2022-09-12T10:48:40;2.55;;;0.63;;
47966;SDS011;33733;52.456;13.620;2022-09-12T10:51:29;3.90;;;0.70;;
47966;SDS011;33733;52.456;13.620;2022-09-12T10:53:57;4.32;;;0.65;;
47966;SDS011;33733;52.456;13.620;2022-09-12T10:56:32;4.13;;;1.67;;
47966;SDS011;33733;52.456;13.620;2022-09-12T10:59:17;3.78;;;1.45;;
47966;SDS011;33733;52.456;13.620;2022-09-12T11:10:23;3.60;;;0.63;;
47966;SDS011;33733;52.456;13.620;2022-09-12T11:13:10;4.80;;;1.95;;
47966;SDS011;33733;52.456;13.620;2022-09-12T11:16:00;3.67;;;1.98;;
47966;SDS011;33733;52.456;13.620;2022-09-12T11:29:44;3.40;;;0.77;;
47966;SDS011;33733;52.456;13.620;2022-09-12T11:40:31;3.78;;;1.63;;
47966;SDS011;33733;52.456;13.620;2022-09-12T11:43:20;3.97;;;1.75;;
47966;SDS011;33733;52.456;13.620;2022-09-12T11:45:48;3.47;;;1.70;;
47966;SDS011;33733;52.456;13.620;2022-09-12T11:48:34;3.85;;;1.65;;
47966;SDS011;33733;52.456;13.620;2022-09-12T11:51:06;3.88;;;0.63;;
47966;SDS011;33733;52.456;13.620;2022-09-12T11:53:43;3.35;;;0.85;;
47966;SDS011;33733;52.456;13.620;2022-09-12T11:56:13;3.03;;;1.48;;
47966;SDS011;33733;52.456;13.620;2022-09-12T11:58:44;3.25;;;0.73;;
47966;SDS011;33733;52.456;13.620;2022-09-12T12:01:18;5.10;;;1.88;;
47966;SDS011;33733;52.456;13.620;2022-09-12T12:03:47;3.60;;;1.30;;
47966;SDS011;33733;52.456;13.620;2022-09-12T12:06:23;4.47;;;2.03;;
47966;SDS011;33733;52.456;13.620;2022-09-12T12:08:55;4.38;;;2.13;;
47966;SDS011;33733;52.456;13.620;2022-09-12T12:13:58;4.30;;;1.52;;
47966;SDS011;33733;52.456;13.620;2022-09-12T12:16:30;3.53;;;1.67;;
47966;SDS011;33733;52.456;13.620;2022-09-12T12:18:59;3.85;;;0.65;;
47966;SDS011;33733;52.456;13.620;2022-09-12T12:21:46;4.38;;;1.80;;
47966;SDS011;33733;52.456;13.620;2022-09-12T12:24:18;3.92;;;0.70;;
47966;SDS011;33733;52.456;13.620;2022-09-12T12:34:26;4.18;;;1.38;;
47966;SDS011;33733;52.456;13.620;2022-09-12T12:36:53;4.00;;;1.55;;
47966;SDS011;33733;52.456;13.620;2022-09-12T12:44:58;3.85;;;0.82;;
47966;SDS011;33733;52.456;13.620;2022-09-12T12:47:46;5.55;;;2.47;;
47966;SDS011;33733;52.456;13.620;2022-09-12T12:52:48;3.72;;;0.77;;
47966;SDS011;33733;52.456;13.620;2022-09-12T12:55:20;4.07;;;1.48;;
47966;SDS011;33733;52.456;13.620;2022-09-12T12:57:53;3.75;;;0.85;;
47966;SDS011;33733;52.456;13.620;2022-09-12T13:02:51;3.22;;;0.80;;
47966;SDS011;33733;52.456;13.620;2022-09-12T13:05:23;3.58;;;1.65;;
47966;SDS011;33733;52.456;13.620;2022-09-12T13:07:52;2.78;;;0.57;;
47966;SDS011;33733;52.456;13.620;2022-09-12T13:10:24;3.95;;;1.80;;
47966;SDS011;33733;52.456;13.620;2022-09-12T13:12:55;3.85;;;1.98;;
47966;SDS011;33733;52.456;13.620;2022-09-12T13:18:03;5.07;;;1.40;;
47966;SDS011;33733;52.456;13.620;2022-09-12T13:20:32;4.60;;;1.70;;
47966;SDS011;33733;52.456;13.620;2022-09-12T13:23:03;3.30;;;0.80;;
47966;SDS011;33733;52.456;13.620;2022-09-12T13:25:33;6.07;;;1.80;;
47966;SDS011;33733;52.456;13.620;2022-09-12T13:30:47;5.93;;;1.65;;
47966;SDS011;33733;52.456;13.620;2022-09-12T13:36:07;4.47;;;1.63;;
47966;SDS011;33733;52.456;13.620;2022-09-12T13:44:08;6.32;;;1.52;;
47966;SDS011;33733;52.456;13.620;2022-09-12T13:46:36;2.78;;;0.70;;
47966;SDS011;33733;52.456;13.620;2022-09-12T13:49:10;3.92;;;1.13;;
47966;SDS011;33733;52.456;13.620;2022-09-12T13:51:44;4.07;;;1.15;;
47966;SDS011;33733;52.456;13.620;2022-09-12T13:54:14;4.43;;;1.60;;
47966;SDS011;33733;52.456;13.620;2022-09-12T13:56:49;4.25;;;1.70;;
47966;SDS011;33733;52.456;13.620;2022-09-12T13:59:16;4.35;;;1.90;;
47966;SDS011;33733;52.456;13.620;2022-09-12T14:01:43;4.55;;;1.42;;
47966;SDS011;33733;52.456;13.620;2022-09-12T14:07:10;3.30;;;0.82;;
47966;SDS011;33733;52.456;13.620;2022-09-12T14:09:41;2.90;;;0.68;;
47966;SDS011;33733;52.456;13.620;2022-09-12T14:12:12;3.47;;;0.73;;
47966;SDS011;33733;52.456;13.620;2022-09-12T14:15:00;3.55;;;1.35;;
47966;SDS011;33733;52.456;13.620;2022-09-12T14:17:27;3.88;;;1.75;;
47966;SDS011;33733;52.456;13.620;2022-09-12T14:20:04;4.95;;;1.65;;
47966;SDS011;33733;52.456;13.620;2022-09-12T14:22:32;4.20;;;0.93;;
47966;SDS011;33733;52.456;13.620;2022-09-12T14:24:59;3.95;;;1.77;;
47966;SDS011;33733;52.456;13.620;2022-09-12T14:27:28;4.30;;;1.60;;
47966;SDS011;33733;52.456;13.620;2022-09-12T14:30:02;4.75;;;0.95;;
47966;SDS011;33733;52.456;13.620;2022-09-12T14:32:32;4.22;;;1.77;;
47966;SDS011;33733;52.456;13.620;2022-09-12T14:35:06;4.28;;;1.60;;
47966;SDS011;33733;52.456;13.620;2022-09-12T14:37:43;4.15;;;1.98;;
47966;SDS011;33733;52.456;13.620;2022-09-12T14:40:17;5.18;;;2.15;;
47966;SDS011;33733;52.456;13.620;2022-09-12T14:42:45;3.10;;;1.38;;
47966;SDS011;33733;52.456;13.620;2022-09-12T14:47:47;5.68;;;1.92;;
47966;SDS011;33733;52.456;13.620;2022-09-12T14:50:21;4.45;;;2.25;;
47966;SDS011;33733;52.456;13.620;2022-09-12T14:55:56;4.03;;;0.82;;
47966;SDS011;33733;52.456;13.620;2022-09-12T14:58:29;4.82;;;0.60;;
47966;SDS011;33733;52.456;13.620;2022-09-12T15:01:00;2.30;;;0.60;;
47966;SDS011;33733;52.456;13.620;2022-09-12T15:03:51;3.97;;;0.80;;
47966;SDS011;33733;52.456;13.620;2022-09-12T15:06:30;4.13;;;1.65;;
47966;SDS011;33733;52.456;13.620;2022-09-12T15:09:06;4.53;;;0.68;;
47966;SDS011;33733;52.456;13.620;2022-09-12T15:11:36;3.72;;;0.88;;
47966;SDS011;33733;52.456;13.620;2022-09-12T15:14:12;3.72;;;1.83;;
47966;SDS011;33733;52.456;13.620;2022-09-12T15:16:39;5.00;;;1.75;;
47966;SDS011;33733;52.456;13.620;2022-09-12T15:19:06;4.65;;;2.17;;
47966;SDS011;33733;52.456;13.620;2022-09-12T15:21:32;4.97;;;1.73;;
47966;SDS011;33733;52.456;13.620;2022-09-12T15:23:59;4.03;;;1.83;;
47966;SDS011;33733;52.456;13.620;2022-09-12T15:26:26;4.32;;;2.53;;
47966;SDS011;33733;52.456;13.620;2022-09-12T15:28:55;3.53;;;1.67;;
47966;SDS011;33733;52.456;13.620;2022-09-12T15:31:23;3.35;;;1.33;;
47966;SDS011;33733;52.456;13.620;2022-09-12T15:33:52;4.72;;;1.02;;
47966;SDS011;33733;52.456;13.620;2022-09-12T15:36:19;7.18;;;3.47;;
47966;SDS011;33733;52.456;13.620;2022-09-12T15:38:48;3.88;;;0.90;;
47966;SDS011;33733;52.456;13.620;2022-09-12T15:41:15;3.85;;;1.75;;
47966;SDS011;33733;52.456;13.620;2022-09-12T15:46:10;2.97;;;1.40;;
47966;SDS011;33733;52.456;13.620;2022-09-12T15:48:38;3.55;;;1.33;;
47966;SDS011;33733;52.456;13.620;2022-09-12T15:51:09;4.15;;;1.75;;
47966;SDS011;33733;52.456;13.620;2022-09-12T15:53:40;3.97;;;1.58;;
47966;SDS011;33733;52.456;13.620;2022-09-12T15:56:07;3.10;;;1.25;;
47966;SDS011;33733;52.456;13.620;2022-09-12T15:58:34;5.28;;;1.55;;
47966;SDS011;33733;52.456;13.620;2022-09-12T16:01:00;5.45;;;2.30;;
47966;SDS011;33733;52.456;13.620;2022-09-12T16:03:28;3.60;;;1.85;;
47966;SDS011;33733;52.456;13.620;2022-09-12T16:05:55;5.60;;;1.90;;
47966;SDS011;33733;52.456;13.620;2022-09-12T16:08:24;3.80;;;1.75;;
47966;SDS011;33733;52.456;13.620;2022-09-12T16:10:52;4.05;;;1.67;;
47966;SDS011;33733;52.456;13.620;2022-09-12T16:13:21;4.15;;;1.67;;
47966;SDS011;33733;52.456;13.620;2022-09-12T16:15:48;6.53;;;2.35;;
47966;SDS011;33733;52.456;13.620;2022-09-12T16:18:15;7.07;;;2.67;;
47966;SDS011;33733;52.456;13.620;2022-09-12T16:20:42;6.45;;;2.17;;
47966;SDS011;33733;52.456;13.620;2022-09-12T16:23:09;4.28;;;0.90;;
47966;SDS011;33733;52.456;13.620;2022-09-12T16:25:37;5.20;;;2.03;;
47966;SDS011;33733;52.456;13.620;2022-09-12T16:28:04;5.05;;;2.28;;
47966;SDS011;33733;52.456;13.620;2022-09-12T16:30:32;4.60;;;1.55;;
47966;SDS011;33733;52.456;13.620;2022-09-12T16:32:58;4.60;;;2.17;;
47966;SDS011;33733;52.456;13.620;2022-09-12T16:35:25;8.02;;;2.10;;
47966;SDS011;33733;52.456;13.620;2022-09-12T16:37:52;8.63;;;4.40;;
47966;SDS011;33733;52.456;13.620;2022-09-12T16:40:18;6.82;;;2.67;;
47966;SDS011;33733;52.456;13.620;2022-09-12T16:42:45;6.20;;;2.55;;
47966;SDS011;33733;52.456;13.620;2022-09-12T16:45:11;6.63;;;2.03;;
47966;SDS011;33733;52.456;13.620;2022-09-12T16:47:38;4.10;;;2.08;;
47966;SDS011;33733;52.456;13.620;2022-09-12T16:50:05;4.22;;;1.98;;
47966;SDS011;33733;52.456;13.620;2022-09-12T16:52:35;2.95;;;0.75;;
47966;SDS011;33733;52.456;13.620;2022-09-12T16:55:01;4.20;;;2.08;;
47966;SDS011;33733;52.456;13.620;2022-09-12T16:57:28;3.97;;;1.00;;
47966;SDS011;33733;52.456;13.620;2022-09-12T16:59:54;26.20;;;19.17;;
47966;SDS011;33733;52.456;13.620;2022-09-12T17:02:21;10.90;;;7.03;;
47966;SDS011;33733;52.456;13.620;2022-09-12T17:04:47;11.93;;;6.15;;
47966;SDS011;33733;52.456;13.620;2022-09-12T17:07:14;5.15;;;2.58;;
47966;SDS011;33733;52.456;13.620;2022-09-12T17:09:40;5.47;;;0.95;;
47966;SDS011;33733;52.456;13.620;2022-09-12T17:12:12;6.03;;;1.48;;
47966;SDS011;33733;52.456;13.620;2022-09-12T17:14:39;9.68;;;2.40;;
47966;SDS011;33733;52.456;13.620;2022-09-12T17:17:06;4.22;;;1.70;;
47966;SDS011;33733;52.456;13.620;2022-09-12T17:19:32;7.72;;;2.13;;
47966;SDS011;33733;52.456;13.620;2022-09-12T17:21:59;5.40;;;2.28;;
47966;SDS011;33733;52.456;13.620;2022-09-12T17:24:25;6.05;;;2.35;;
47966;SDS011;33733;52.456;13.620;2022-09-12T17:26:52;5.85;;;2.03;;
47966;SDS011;33733;52.456;13.620;2022-09-12T17:29:18;6.50;;;2.60;;
47966;SDS011;33733;52.456;13.620;2022-09-12T17:31:45;4.53;;;2.03;;